createdAt,value
2023-05-14T00:01:46.456Z,102103.59
2023-05-14T00:04:12.963Z,102100.13
2023-05-14T00:06:39.419Z,102086.00
2023-05-14T00:09:06.152Z,102090.84
2023-05-14T00:11:32.647Z,102094.50
2023-05-14T00:13:59.137Z,102081.38
2023-05-14T00:16:25.708Z,102082.53
2023-05-14T00:18:52.317Z,102072.56
2023-05-14T00:21:18.795Z,102080.03
2023-05-14T00:23:45.213Z,102080.13
2023-05-14T00:26:11.673Z,102077.53
2023-05-14T00:28:38.744Z,102081.22
2023-05-14T00:31:05.351Z,102073.16
2023-05-14T00:33:32.563Z,102067.84
2023-05-14T00:35:59.479Z,102069.03
2023-05-14T00:38:28.405Z,102071.06
2023-05-14T00:40:55.311Z,102069.22
2023-05-14T00:43:22.724Z,102055.00
2023-05-14T00:45:54.047Z,102056.25
2023-05-14T00:48:21.643Z,102058.09
2023-05-14T00:50:49.790Z,102055.38
2023-05-14T00:53:16.915Z,102045.88
2023-05-14T00:55:43.544Z,102041.47
2023-05-14T00:58:12.539Z,102037.97
2023-05-14T01:00:40.850Z,102039.84
2023-05-14T01:03:08.237Z,102033.75
2023-05-14T01:06:07.010Z,102043.09
2023-05-14T01:08:58.536Z,102040.91
2023-05-14T01:11:47.838Z,102043.97
2023-05-14T01:14:22.094Z,102035.25
2023-05-14T01:16:52.509Z,102043.47
2023-05-14T01:19:46.665Z,102039.22
2023-05-14T01:22:13.787Z,102036.59
2023-05-14T01:24:40.917Z,102044.72
2023-05-14T01:27:17.292Z,102038.47
2023-05-14T01:29:53.230Z,102041.44
2023-05-14T01:32:21.620Z,102036.31
2023-05-14T01:34:50.819Z,102042.13
2023-05-14T01:37:17.943Z,102042.97
2023-05-14T01:39:45.782Z,102043.06
2023-05-14T01:42:13.130Z,102046.75
2023-05-14T01:44:39.733Z,102041.63
2023-05-14T01:47:06.324Z,102033.78
2023-05-14T01:49:32.882Z,102032.03
2023-05-14T01:51:59.313Z,102026.63
2023-05-14T01:54:25.865Z,102025.75
2023-05-14T01:56:52.264Z,102027.66
2023-05-14T01:59:18.707Z,102023.44
2023-05-14T02:01:45.234Z,102028.13
2023-05-14T02:04:11.778Z,102020.19
2023-05-14T02:06:41.345Z,102017.59
2023-05-14T02:09:07.868Z,102016.81
2023-05-14T02:11:34.342Z,102010.63
2023-05-14T02:14:00.760Z,102012.53
2023-05-14T02:16:27.453Z,102004.31
2023-05-14T02:18:53.991Z,102005.41
2023-05-14T02:21:20.617Z,102006.44
2023-05-14T02:23:49.336Z,102012.03
2023-05-14T02:26:16.446Z,102008.75
2023-05-14T02:28:43.778Z,102018.66
2023-05-14T02:31:12.712Z,102017.91
2023-05-14T02:33:39.247Z,102003.72
2023-05-14T02:36:05.930Z,102008.34
2023-05-14T02:38:32.415Z,102007.75
2023-05-14T02:40:58.944Z,101999.63
2023-05-14T02:43:25.398Z,101997.13
2023-05-14T02:45:51.913Z,102015.06
2023-05-14T02:48:18.735Z,101989.00
2023-05-14T02:50:45.864Z,101987.16
2023-05-14T02:53:12.451Z,101995.34
2023-05-14T02:55:38.850Z,102003.56
2023-05-14T02:58:05.232Z,101999.22
2023-05-14T03:00:31.745Z,101992.16
2023-05-14T03:02:58.639Z,101987.81
2023-05-14T03:05:25.654Z,101996.97
2023-05-14T03:07:53.494Z,101994.44
2023-05-14T03:10:20.506Z,101993.56
2023-05-14T03:12:47.519Z,101999.75
2023-05-14T03:15:14.006Z,101980.25
2023-05-14T03:17:40.543Z,101989.41
2023-05-14T03:20:07.469Z,101987.56
2023-05-14T03:22:35.661Z,101993.16
2023-05-14T03:25:02.091Z,101996.81
2023-05-14T03:27:28.539Z,101986.81
2023-05-14T03:29:55.157Z,101989.56
2023-05-14T03:32:21.635Z,101996.91
2023-05-14T03:34:48.141Z,101990.72
2023-05-14T03:37:14.620Z,101989.75
2023-05-14T03:39:41.078Z,101991.50
2023-05-14T03:42:07.641Z,101988.81
2023-05-14T03:44:34.209Z,101988.81
2023-05-14T03:47:00.608Z,101996.72
2023-05-14T03:49:27.584Z,101994.72
2023-05-14T03:51:55.160Z,101994.53
2023-05-14T03:54:21.730Z,101978.41
2023-05-14T03:56:48.175Z,101977.53
2023-05-14T03:59:14.674Z,101979.97
2023-05-14T04:01:41.102Z,101979.91
2023-05-14T04:04:07.818Z,101981.72
2023-05-14T04:06:34.690Z,101976.22
2023-05-14T04:09:02.118Z,101977.84
2023-05-14T04:11:28.730Z,101969.09
2023-05-14T04:13:55.519Z,101971.78
2023-05-14T04:16:22.453Z,101966.28
2023-05-14T04:18:49.145Z,101972.19
2023-05-14T04:21:15.735Z,101963.91
2023-05-14T04:23:42.155Z,101965.53
2023-05-14T04:26:08.666Z,101973.63
2023-05-14T04:28:35.199Z,101966.78
2023-05-14T04:31:01.714Z,101970.44
2023-05-14T04:33:28.206Z,101968.31
2023-05-14T04:35:54.672Z,101970.00
2023-05-14T04:38:21.232Z,101974.91
2023-05-14T04:40:47.689Z,101970.31
2023-05-14T04:43:14.158Z,101975.75
2023-05-14T04:45:41.176Z,101973.16
2023-05-14T04:48:07.893Z,101979.66
2023-05-14T04:50:35.096Z,101978.34
2023-05-14T04:53:01.684Z,101970.22
2023-05-14T04:55:28.248Z,101973.28
2023-05-14T04:57:54.869Z,101970.13
2023-05-14T05:00:22.207Z,101981.53
2023-05-14T05:02:49.029Z,101980.34
2023-05-14T05:05:15.564Z,101977.16
2023-05-14T05:07:42.012Z,101982.56
2023-05-14T05:10:08.902Z,101975.56
2023-05-14T05:15:02.128Z,101977.50
2023-05-14T05:17:29.568Z,101980.31
2023-05-14T05:19:56.253Z,101979.22
2023-05-14T05:22:23.742Z,101978.72
2023-05-14T05:24:50.307Z,101978.88
2023-05-14T05:27:16.929Z,101989.19
2023-05-14T05:29:44.522Z,101985.00
2023-05-14T05:32:10.972Z,101986.38
2023-05-14T05:34:37.478Z,101989.84
2023-05-14T05:37:05.855Z,101997.31
2023-05-14T05:39:35.986Z,101994.00
2023-05-14T05:42:02.765Z,101984.75
2023-05-14T05:44:29.357Z,101979.78
2023-05-14T05:46:57.228Z,101982.50
2023-05-14T05:49:23.950Z,101990.09
2023-05-14T05:51:50.541Z,101989.31
2023-05-14T05:54:17.118Z,101999.56
2023-05-14T05:56:43.710Z,101992.19
2023-05-14T05:59:10.247Z,101990.47
2023-05-14T06:01:37.113Z,101986.66
2023-05-14T06:04:06.162Z,101987.78
2023-05-14T06:06:32.990Z,101995.91
2023-05-14T06:08:59.605Z,101997.22
2023-05-14T06:11:26.720Z,101992.28
2023-05-14T06:13:53.814Z,101989.63
2023-05-14T06:16:20.903Z,101989.31
2023-05-14T06:18:47.624Z,102000.31
2023-05-14T06:21:14.192Z,102000.53
2023-05-14T06:23:41.213Z,101994.97
2023-05-14T06:26:07.619Z,102002.34
2023-05-14T06:28:34.146Z,102005.50
2023-05-14T06:31:00.678Z,102011.72
2023-05-14T06:33:30.803Z,102005.09
2023-05-14T06:36:03.492Z,101992.41
2023-05-14T06:38:29.907Z,101991.28
2023-05-14T06:40:56.381Z,101991.31
2023-05-14T06:43:22.802Z,101977.34
2023-05-14T06:45:50.130Z,101993.13
2023-05-14T06:48:18.878Z,101996.97
2023-05-14T06:50:46.429Z,101976.28
2023-05-14T06:53:12.989Z,101979.16
2023-05-14T06:55:39.736Z,101977.44
2023-05-14T06:58:07.290Z,101975.94
2023-05-14T07:00:33.789Z,101974.09
2023-05-14T07:03:00.349Z,101971.81
2023-05-14T07:05:26.839Z,101964.38
2023-05-14T07:07:53.359Z,101969.47
2023-05-14T07:10:19.851Z,101962.84
2023-05-14T07:12:46.383Z,101960.72
2023-05-14T07:15:12.844Z,101966.94
2023-05-14T07:17:39.632Z,101967.94
2023-05-14T07:20:06.902Z,101982.22
2023-05-14T07:22:33.352Z,101976.06
2023-05-14T07:24:59.937Z,101970.69
2023-05-14T07:27:26.534Z,101968.63
2023-05-14T07:29:53.061Z,101960.34
2023-05-14T07:32:19.473Z,101960.47
2023-05-14T07:34:46.299Z,101959.50
2023-05-14T07:37:12.753Z,101964.34
2023-05-14T07:39:41.547Z,101953.69
2023-05-14T07:42:08.050Z,101966.59
2023-05-14T07:44:34.577Z,101951.19
2023-05-14T07:47:01.253Z,101951.78
2023-05-14T07:49:27.778Z,101952.13
2023-05-14T07:51:54.266Z,101957.28
2023-05-14T07:54:20.824Z,101945.66
2023-05-14T07:56:47.358Z,101947.28
2023-05-14T07:59:13.853Z,101947.41
2023-05-14T08:01:40.599Z,101946.97
2023-05-14T08:04:07.164Z,101954.97
2023-05-14T08:06:34.050Z,101949.94
2023-05-14T08:09:00.716Z,101954.59
2023-05-14T08:11:27.143Z,101946.41
2023-05-14T08:13:53.610Z,101945.19
2023-05-14T08:16:20.126Z,101947.25
2023-05-14T08:18:48.136Z,101944.16
2023-05-14T08:21:14.796Z,101951.03
2023-05-14T08:23:41.312Z,101951.94
2023-05-14T08:26:07.746Z,101947.13
2023-05-14T08:28:34.195Z,101949.38
2023-05-14T08:31:00.740Z,101946.47
2023-05-14T08:33:27.316Z,101937.34
2023-05-14T08:35:54.679Z,101938.34
2023-05-14T08:38:21.124Z,101943.78
2023-05-14T08:40:58.355Z,101939.47
2023-05-14T08:43:29.745Z,101939.56
2023-05-14T08:46:01.907Z,101940.44
2023-05-14T08:48:32.890Z,101938.66
2023-05-14T08:51:00.447Z,101928.63
2023-05-14T08:53:27.235Z,101920.66
2023-05-14T08:55:54.046Z,101923.69
2023-05-14T08:58:20.692Z,101928.97
2023-05-14T09:00:47.590Z,101927.28
2023-05-14T09:03:14.979Z,101923.38
2023-05-14T09:05:41.968Z,101914.81
2023-05-14T09:08:08.418Z,101922.41
2023-05-14T09:10:34.857Z,101921.22
2023-05-14T09:13:01.436Z,101916.59
2023-05-14T09:15:29.645Z,101919.47
2023-05-14T09:17:58.612Z,101918.59
2023-05-14T09:20:25.879Z,101900.66
2023-05-14T09:22:54.283Z,101904.63
2023-05-14T09:25:26.496Z,101903.47
2023-05-14T09:27:56.113Z,101906.06
2023-05-14T09:30:25.133Z,101905.13
2023-05-14T09:32:54.498Z,101901.78
2023-05-14T09:35:22.834Z,101897.56
2023-05-14T09:37:51.792Z,101900.53
2023-05-14T09:40:20.475Z,101899.72
2023-05-14T09:42:50.936Z,101905.94
2023-05-14T09:45:17.849Z,101886.34
2023-05-14T09:47:45.013Z,101885.56
2023-05-14T09:50:12.272Z,101886.41
2023-05-14T09:52:39.106Z,101889.97
2023-05-14T09:55:06.393Z,101885.50
2023-05-14T09:57:33.606Z,101888.53
2023-05-14T10:00:00.363Z,101883.59
2023-05-14T10:02:41.164Z,101884.75
2023-05-14T10:05:08.312Z,101889.09
2023-05-14T10:07:41.639Z,101874.34
2023-05-14T10:10:13.601Z,101873.44
2023-05-14T10:12:40.619Z,101873.06
2023-05-14T10:15:23.920Z,101874.94
2023-05-14T10:17:56.605Z,101869.97
2023-05-14T10:20:25.185Z,101874.84
2023-05-14T10:22:52.173Z,101861.34
2023-05-14T10:25:18.900Z,101861.28
2023-05-14T10:27:45.588Z,101861.31
2023-05-14T10:30:12.877Z,101870.13
2023-05-14T10:32:41.716Z,101866.03
2023-05-14T10:35:20.549Z,101862.72
2023-05-14T10:37:47.244Z,101858.03
2023-05-14T10:40:14.089Z,101854.00
2023-05-14T10:42:43.195Z,101857.84
2023-05-14T10:45:18.649Z,101858.94
2023-05-14T10:47:47.233Z,101846.88
2023-05-14T10:50:17.656Z,101842.47
2023-05-14T10:52:45.712Z,101837.00
2023-05-14T10:55:16.680Z,101842.53
2023-05-14T10:57:45.325Z,101845.84
2023-05-14T11:00:13.958Z,101834.25
2023-05-14T11:02:42.809Z,101836.25
2023-05-14T11:05:13.702Z,101833.59
2023-05-14T11:07:42.168Z,101823.25
2023-05-14T11:10:14.263Z,101825.03
2023-05-14T11:12:46.093Z,101822.47
2023-05-14T11:15:16.502Z,101819.72
2023-05-14T11:17:45.262Z,101824.38
2023-05-14T11:20:15.058Z,101830.66
2023-05-14T11:22:42.960Z,101816.59
2023-05-14T11:25:10.656Z,101820.16
2023-05-14T11:27:38.663Z,101810.47
2023-05-14T11:30:11.843Z,101810.31
2023-05-14T11:32:38.390Z,101814.88
2023-05-14T11:35:05.868Z,101803.53
2023-05-14T11:37:33.392Z,101799.97
2023-05-14T11:40:01.699Z,101801.41
2023-05-14T11:42:28.297Z,101797.25
2023-05-14T11:44:54.877Z,101806.66
2023-05-14T11:47:22.318Z,101797.91
2023-05-14T11:49:49.410Z,101797.72
2023-05-14T11:52:19.432Z,101804.97
2023-05-14T11:54:46.617Z,101797.88
2023-05-14T11:57:16.285Z,101794.47
2023-05-14T11:59:42.971Z,101800.25
2023-05-14T12:02:14.470Z,101794.38
2023-05-14T12:04:42.322Z,101790.50
2023-05-14T12:07:13.329Z,101785.28
2023-05-14T12:09:50.886Z,101786.56
2023-05-14T12:12:23.706Z,101780.69
2023-05-14T12:14:51.009Z,101780.91
2023-05-14T12:17:19.652Z,101775.66
2023-05-14T12:19:48.542Z,101787.69
2023-05-14T12:22:17.504Z,101777.19
2023-05-14T12:24:53.401Z,101771.22
2023-05-14T12:27:24.860Z,101774.72
2023-05-14T12:30:09.110Z,101767.75
2023-05-14T12:32:45.829Z,101775.47
2023-05-14T12:35:12.507Z,101759.25
2023-05-14T12:37:39.979Z,101764.41
2023-05-14T12:40:09.417Z,101756.09
2023-05-14T12:42:36.394Z,101755.72
2023-05-14T12:45:05.482Z,101754.84
2023-05-14T12:47:32.450Z,101757.44
2023-05-14T12:49:58.920Z,101748.28
2023-05-14T12:52:36.610Z,101748.19
2023-05-14T12:55:05.532Z,101743.69
2023-05-14T12:57:32.258Z,101740.59
2023-05-14T12:59:58.946Z,101746.91
2023-05-14T13:02:25.490Z,101735.16
2023-05-14T13:04:51.897Z,101739.09
2023-05-14T13:07:18.510Z,101738.13
2023-05-14T13:09:45.011Z,101736.38
2023-05-14T13:12:11.533Z,101727.78
2023-05-14T13:14:38.022Z,101736.38
2023-05-14T13:17:05.189Z,101730.53
2023-05-14T13:19:32.472Z,101725.78
2023-05-14T13:21:58.884Z,101722.94
2023-05-14T13:24:25.462Z,101723.81
2023-05-14T13:26:51.878Z,101727.25
2023-05-14T13:29:18.375Z,101729.66
2023-05-14T13:31:44.806Z,101724.31
2023-05-14T13:34:11.285Z,101716.81
2023-05-14T13:36:39.604Z,101714.16
2023-05-14T13:39:07.126Z,101717.09
2023-05-14T13:41:35.620Z,101713.00
2023-05-14T13:44:02.062Z,101718.81
2023-05-14T13:46:28.877Z,101710.44
2023-05-14T13:48:55.426Z,101710.03
2023-05-14T13:51:24.790Z,101707.09
2023-05-14T13:53:51.219Z,101702.56
2023-05-14T13:56:17.694Z,101704.94
2023-05-14T13:58:44.171Z,101703.88
2023-05-14T14:01:10.790Z,101697.56
2023-05-14T14:03:37.272Z,101702.69
2023-05-14T14:06:03.805Z,101695.00
2023-05-14T14:08:31.079Z,101692.84
2023-05-14T14:10:57.666Z,101684.66
2023-05-14T14:13:24.432Z,101685.91
2023-05-14T14:15:51.423Z,101688.84
2023-05-14T14:18:17.953Z,101688.66
2023-05-14T14:20:44.429Z,101685.59
2023-05-14T14:23:10.914Z,101691.44
2023-05-14T14:25:37.339Z,101678.53
2023-05-14T14:28:03.943Z,101679.69
2023-05-14T14:30:30.396Z,101680.22
2023-05-14T14:32:56.972Z,101684.47
2023-05-14T14:35:25.052Z,101678.53
2023-05-14T14:37:53.613Z,101672.81
2023-05-14T14:40:20.163Z,101670.81
2023-05-14T14:42:47.948Z,101666.69
2023-05-14T14:45:14.455Z,101664.84
2023-05-14T14:47:46.220Z,101671.03
2023-05-14T14:50:13.642Z,101669.19
2023-05-14T14:52:45.444Z,101674.78
2023-05-14T14:55:12.574Z,101665.25
2023-05-14T14:57:39.108Z,101668.91
2023-05-14T15:00:06.865Z,101673.09
2023-05-14T15:02:33.427Z,101668.47
2023-05-14T15:05:00.151Z,101675.81
2023-05-14T15:07:26.637Z,101667.59
2023-05-14T15:09:53.052Z,101669.28
2023-05-14T15:12:19.574Z,101669.72
2023-05-14T15:14:46.014Z,101663.81
2023-05-14T15:17:12.426Z,101666.91
2023-05-14T15:19:38.879Z,101676.38
2023-05-14T15:22:05.412Z,101665.25
2023-05-14T15:24:31.940Z,101658.72
2023-05-14T15:27:00.067Z,101654.16
2023-05-14T15:29:26.646Z,101658.63
2023-05-14T15:31:53.205Z,101658.94
2023-05-14T15:34:20.768Z,101661.94
2023-05-14T15:36:47.315Z,101654.94
2023-05-14T15:39:13.794Z,101653.09
2023-05-14T15:41:40.485Z,101647.63
2023-05-14T15:44:07.311Z,101647.97
2023-05-14T15:46:33.861Z,101644.00
2023-05-14T15:49:00.337Z,101639.06
2023-05-14T15:51:26.832Z,101644.59
2023-05-14T15:53:55.066Z,101641.84
2023-05-14T15:56:23.047Z,101637.19
2023-05-14T15:58:55.813Z,101634.78
2023-05-14T16:01:22.382Z,101627.56
2023-05-14T16:03:49.000Z,101638.03
2023-05-14T16:06:16.020Z,101646.47
2023-05-14T16:08:42.414Z,101638.25
2023-05-14T16:11:10.521Z,101639.94
2023-05-14T16:13:38.375Z,101637.38
2023-05-14T16:16:05.229Z,101650.78
2023-05-14T16:18:31.696Z,101650.44
2023-05-14T16:20:58.254Z,101650.06
2023-05-14T16:23:24.772Z,101643.72
2023-05-14T16:25:51.314Z,101646.13
2023-05-14T16:28:17.799Z,101650.41
2023-05-14T16:30:44.288Z,101646.78
2023-05-14T16:33:10.726Z,101648.81
2023-05-14T16:35:37.350Z,101643.25
2023-05-14T16:38:04.072Z,101646.84
2023-05-14T16:40:30.622Z,101658.13
2023-05-14T16:42:57.113Z,101647.56
2023-05-14T16:45:24.032Z,101646.34
2023-05-14T16:47:50.738Z,101651.97
2023-05-14T16:50:17.294Z,101654.66
2023-05-14T16:52:43.737Z,101650.31
2023-05-14T16:55:10.648Z,101654.97
2023-05-14T16:57:37.313Z,101659.81
2023-05-14T17:00:06.043Z,101661.50
2023-05-14T17:02:33.332Z,101669.34
2023-05-14T17:05:01.418Z,101667.22
2023-05-14T17:07:28.076Z,101672.41
2023-05-14T17:09:54.685Z,101675.47
2023-05-14T17:12:21.347Z,101671.28
2023-05-14T17:14:50.318Z,101668.53
2023-05-14T17:17:16.937Z,101667.50
2023-05-14T17:19:43.715Z,101661.19
2023-05-14T17:22:11.537Z,101663.09
2023-05-14T17:24:39.041Z,101665.22
2023-05-14T17:27:06.208Z,101660.56
2023-05-14T17:29:32.713Z,101663.94
2023-05-14T17:31:59.375Z,101664.38
2023-05-14T17:34:25.894Z,101669.50
2023-05-14T17:36:52.364Z,101680.94
2023-05-14T17:39:18.777Z,101680.66
2023-05-14T17:41:45.275Z,101681.47
2023-05-14T17:44:13.038Z,101671.88
2023-05-14T17:46:41.789Z,101666.41
2023-05-14T17:49:08.271Z,101675.22
2023-05-14T17:51:34.799Z,101669.31
2023-05-14T17:54:01.213Z,101671.63
2023-05-14T17:56:27.870Z,101677.41
2023-05-14T17:58:54.406Z,101687.03
2023-05-14T18:01:20.965Z,101684.00
2023-05-14T18:03:47.545Z,101694.50
2023-05-14T18:06:14.942Z,101694.06
2023-05-14T18:08:41.720Z,101695.22
2023-05-14T18:11:08.214Z,101689.91
2023-05-14T18:13:34.846Z,101686.44
2023-05-14T18:16:01.482Z,101697.06
2023-05-14T18:18:28.041Z,101692.75
2023-05-14T18:20:54.596Z,101686.41
2023-05-14T18:23:21.188Z,101699.03
2023-05-14T18:25:48.130Z,101700.88
2023-05-14T18:28:15.335Z,101711.06
2023-05-14T18:30:43.410Z,101703.72
2023-05-14T18:33:10.219Z,101713.25
2023-05-14T18:35:37.063Z,101708.75
2023-05-14T18:38:03.603Z,101714.16
2023-05-14T18:40:30.111Z,101715.56
2023-05-14T18:42:59.018Z,101723.25
2023-05-14T18:45:25.876Z,101721.56
2023-05-14T18:47:52.724Z,101715.75
2023-05-14T18:50:19.404Z,101724.84
2023-05-14T18:52:45.970Z,101722.63
2023-05-14T18:55:12.462Z,101728.63
2023-05-14T18:57:38.919Z,101731.63
2023-05-14T19:00:06.194Z,101727.34
2023-05-14T19:02:32.753Z,101721.69
2023-05-14T19:04:59.262Z,101729.50
2023-05-14T19:07:27.166Z,101738.41
2023-05-14T19:09:53.654Z,101736.59
2023-05-14T19:12:20.141Z,101736.88
2023-05-14T19:14:46.545Z,101733.66
2023-05-14T19:17:13.060Z,101737.34
2023-05-14T19:19:39.673Z,101733.25
2023-05-14T19:22:06.629Z,101736.09
2023-05-14T19:24:33.141Z,101733.50
2023-05-14T19:26:59.733Z,101729.59
2023-05-14T19:29:26.275Z,101729.53
2023-05-14T19:31:52.786Z,101731.75
2023-05-14T19:34:19.238Z,101740.56
2023-05-14T19:36:45.835Z,101737.97
2023-05-14T19:39:12.257Z,101733.38
2023-05-14T19:41:38.859Z,101730.28
2023-05-14T19:44:05.415Z,101741.00
2023-05-14T19:46:31.972Z,101738.78
2023-05-14T19:48:58.479Z,101735.91
2023-05-14T19:51:25.430Z,101736.16
2023-05-14T19:53:54.040Z,101730.72
2023-05-14T19:56:21.557Z,101729.72
2023-05-14T19:58:48.055Z,101727.22
2023-05-14T20:01:15.025Z,101731.81
2023-05-14T20:03:41.854Z,101733.13
2023-05-14T20:06:08.418Z,101734.97
2023-05-14T20:08:34.868Z,101737.44
2023-05-14T20:11:01.541Z,101736.66
2023-05-14T20:13:28.039Z,101728.75
2023-05-14T20:15:55.070Z,101735.06
2023-05-14T20:18:21.774Z,101728.63
2023-05-14T20:20:49.047Z,101727.38
2023-05-14T20:23:15.891Z,101736.75
2023-05-14T20:25:43.055Z,101728.72
2023-05-14T20:28:10.134Z,101728.19
2023-05-14T20:30:36.656Z,101724.59
2023-05-14T20:33:06.689Z,101723.09
2023-05-14T20:35:33.238Z,101718.00
2023-05-14T20:38:00.160Z,101726.41
2023-05-14T20:40:26.630Z,101724.44
2023-05-14T20:42:53.204Z,101719.56
2023-05-14T20:45:19.752Z,101716.56
2023-05-14T20:47:46.567Z,101712.13
2023-05-14T20:50:13.775Z,101718.31
2023-05-14T20:52:40.687Z,101712.13
2023-05-14T20:55:07.645Z,101714.44
2023-05-14T20:57:34.242Z,101706.50
2023-05-14T21:00:01.532Z,101713.81
2023-05-14T21:02:27.984Z,101709.47
2023-05-14T21:04:54.728Z,101703.28
2023-05-14T21:07:21.236Z,101701.03
2023-05-14T21:09:52.147Z,101703.50
2023-05-14T21:12:19.300Z,101701.91
2023-05-14T21:14:45.792Z,101694.00
2023-05-14T21:17:12.526Z,101694.09
2023-05-14T21:19:39.083Z,101693.25
2023-05-14T21:22:06.463Z,101699.44
2023-05-14T21:24:32.959Z,101699.75
2023-05-14T21:26:59.419Z,101703.47
2023-05-14T21:29:25.985Z,101707.25
2023-05-14T21:31:52.597Z,101706.97
2023-05-14T21:34:19.048Z,101709.38
2023-05-14T21:36:45.566Z,101712.31
2023-05-14T21:39:12.036Z,101715.28
2023-05-14T21:41:38.512Z,101709.63
2023-05-14T21:44:04.971Z,101704.78
2023-05-14T21:46:31.958Z,101699.25
2023-05-14T21:48:58.475Z,101696.88
2023-05-14T21:51:24.954Z,101695.00
2023-05-14T21:53:51.329Z,101688.94
2023-05-14T21:56:17.789Z,101691.88
2023-05-14T21:58:44.489Z,101708.03
2023-05-14T22:01:11.598Z,101689.63
2023-05-14T22:03:38.515Z,101686.50
2023-05-14T22:06:05.521Z,101688.22
2023-05-14T22:08:32.263Z,101694.16
2023-05-14T22:10:58.750Z,101692.09
2023-05-14T22:13:25.275Z,101682.91
2023-05-14T22:16:01.178Z,101677.47
2023-05-14T22:18:36.505Z,101687.31
2023-05-14T22:21:03.333Z,101678.09
2023-05-14T22:23:29.989Z,101677.56
2023-05-14T22:25:56.926Z,101682.25
2023-05-14T22:28:23.562Z,101687.66
2023-05-14T22:30:50.158Z,101690.69
2023-05-14T22:33:16.618Z,101688.97
2023-05-14T22:35:43.083Z,101678.34
2023-05-14T22:38:09.494Z,101672.16
2023-05-14T22:40:36.429Z,101674.97
2023-05-14T22:43:02.903Z,101673.16
2023-05-14T22:45:29.418Z,101668.81
2023-05-14T22:47:55.878Z,101664.59
2023-05-14T22:50:22.477Z,101659.47
2023-05-14T22:52:48.884Z,101660.59
2023-05-14T22:55:15.465Z,101655.16
2023-05-14T22:57:41.948Z,101654.63
2023-05-14T23:00:09.001Z,101649.63
2023-05-14T23:02:35.711Z,101655.03
2023-05-14T23:05:02.216Z,101646.91
2023-05-14T23:07:28.796Z,101644.41
2023-05-14T23:09:55.262Z,101639.78
2023-05-14T23:12:21.744Z,101638.69
2023-05-14T23:14:48.212Z,101642.91
2023-05-14T23:17:14.744Z,101646.72
2023-05-14T23:19:41.307Z,101651.91
2023-05-14T23:22:07.799Z,101648.44
2023-05-14T23:24:34.352Z,101646.59
2023-05-14T23:27:00.787Z,101639.56
2023-05-14T23:29:27.262Z,101638.59
2023-05-14T23:31:53.829Z,101628.31
2023-05-14T23:34:21.990Z,101638.25
2023-05-14T23:36:48.590Z,101632.84
2023-05-14T23:39:16.203Z,101622.78
2023-05-14T23:41:42.698Z,101620.78
2023-05-14T23:44:09.098Z,101615.59
2023-05-14T23:46:35.682Z,101607.59
2023-05-14T23:49:02.151Z,101604.22
2023-05-14T23:51:28.580Z,101597.97
2023-05-14T23:54:00.150Z,101592.75
2023-05-14T23:56:30.318Z,101590.16
2023-05-14T23:58:56.877Z,101588.53
